Time;durP1;ratioP1;P1;durP2;ratioP2;P2;SDS_P1;SDS_P2;PMS_P1;PMS_P2;Temp;Humidity;BMP_temperature;BMP_pressure;BME280_temperature;BME280_humidity;BME280_pressure;Samples;Min_cycle;Max_cycle;Signal;HPM_P1;HPM_P2
2022/01/06 00:02:52;;;;;;;12.90;2.85;;;;;;;2.65;93.32;100154.06;6064799;28;20038;-71
2022/01/06 00:05:47;;;;;;;19.20;3.10;;;;;;;2.67;93.05;100153.03;6065239;28;20099;-72
2022/01/06 00:08:43;;;;;;;11.57;2.33;;;;;;;2.69;92.87;100168.63;6066468;28;20018;-72
2022/01/06 00:11:38;;;;;;;20.43;2.83;;;;;;;2.66;93.17;100176.69;6067361;28;20033;-73
2022/01/06 00:24:12;;;;;;;10.43;1.90;;;;;;;2.63;92.76;100182.16;6066241;28;20038;-72
2022/01/06 00:27:07;;;;;;;10.03;1.90;;;;;;;2.65;92.51;100191.56;6072947;28;20033;-72
2022/01/06 00:30:03;;;;;;;13.10;2.63;;;;;;;2.64;92.58;100209.97;6085155;28;20284;-71
2022/01/06 00:32:58;;;;;;;13.95;1.85;;;;;;;2.60;92.51;100208.53;6085163;28;20033;-72
2022/01/06 00:35:54;;;;;;;10.07;1.60;;;;;;;2.58;92.39;100226.13;6081026;28;20059;-71
2022/01/06 00:38:49;;;;;;;7.63;1.90;;;;;;;2.56;92.95;100254.16;6083460;28;20055;-70
2022/01/06 00:41:44;;;;;;;3.85;1.13;;;;;;;1.19;92.24;100268.63;6083262;28;20632;-73
2022/01/06 00:44:40;;;;;;;4.03;0.70;;;;;;;0.69;92.74;100277.91;6078164;28;20121;-72
2022/01/06 00:47:35;;;;;;;2.17;0.80;;;;;;;0.60;93.63;100287.97;6086593;28;20047;-71
2022/01/06 00:50:30;;;;;;;3.73;0.83;;;;;;;0.60;94.14;100295.81;6072858;28;20094;-73
2022/01/06 00:53:26;;;;;;;2.75;0.60;;;;;;;0.67;94.12;100291.06;6086745;28;20029;-71
2022/01/06 00:56:21;;;;;;;0.63;0.40;;;;;;;0.65;94.67;100292.94;6079235;28;20068;-73
2022/01/06 00:59:17;;;;;;;2.63;0.70;;;;;;;0.60;95.07;100305.41;6087069;28;20025;-72
2022/01/06 01:02:12;;;;;;;1.67;0.60;;;;;;;0.59;95.01;100311.56;6080738;28;20044;-73
2022/01/06 01:05:08;;;;;;;1.60;0.40;;;;;;;0.63;95.21;100309.59;6082975;28;20040;-71
2022/01/06 01:08:03;;;;;;;3.65;0.88;;;;;;;0.67;95.33;100319.75;6083016;28;20334;-71
2022/01/06 01:10:59;;;;;;;3.97;0.80;;;;;;;0.73;95.36;100326.38;6078600;28;20492;-73
2022/01/06 01:13:55;;;;;;;4.07;0.97;;;;;;;0.71;95.16;100336.06;6078914;28;20040;-71
2022/01/06 01:16:56;;;;;;;4.40;0.75;;;;;;;0.74;96.19;100348.91;6080941;28;20104;-72
2022/01/06 01:19:52;;;;;;;3.30;1.00;;;;;;;0.73;95.73;100347.25;6084649;28;20025;-71
2022/01/06 01:22:48;;;;;;;3.42;1.10;;;;;;;0.67;95.80;100353.69;6082892;28;20041;-71
2022/01/06 01:25:44;;;;;;;5.10;1.30;;;;;;;0.68;95.82;100368.38;6081835;28;20430;-73
2022/01/06 01:28:44;;;;;;;4.18;1.20;;;;;;;0.66;95.90;100372.84;6084612;28;20736;-72
2022/01/06 01:31:45;;;;;;;3.50;1.10;;;;;;;0.64;96.14;100381.72;6081744;28;20076;-71
2022/01/06 01:34:44;;;;;;;4.57;0.98;;;;;;;0.64;96.18;100379.09;6082333;28;20041;-71
2022/01/06 01:37:40;;;;;;;2.53;0.65;;;;;;;0.64;95.75;100405.19;6083257;28;20108;-71
2022/01/06 01:40:35;;;;;;;3.35;1.10;;;;;;;0.60;96.04;100409.75;6081485;28;20029;-70
2022/01/06 01:43:30;;;;;;;3.60;0.80;;;;;;;0.60;95.92;100415.81;6084647;28;20024;-71
2022/01/06 01:46:30;;;;;;;5.77;1.10;;;;;;;0.57;95.83;100428.22;6081136;28;20033;-72
2022/01/06 01:52:21;;;;;;;2.20;1.00;;;;;;;0.50;95.60;100445.13;6078606;28;20037;-71
2022/01/06 01:55:30;;;;;;;4.45;0.82;;;;;;;0.53;95.30;100451.00;6084132;28;20079;-71
2022/01/06 01:58:25;;;;;;;5.63;0.80;;;;;;;0.49;94.87;100464.31;6085757;28;20138;-72
2022/01/06 02:01:20;;;;;;;1.40;0.50;;;;;;;0.47;94.58;100477.44;6068565;28;20062;-73
2022/01/06 02:04:15;;;;;;;4.10;1.00;;;;;;;0.41;94.26;100482.16;6084720;28;20503;-72
2022/01/06 02:07:11;;;;;;;0.80;0.57;;;;;;;0.35;93.61;100480.75;6085841;28;20391;-73
2022/01/06 02:10:08;;;;;;;5.87;1.10;;;;;;;0.27;93.53;100501.19;6079352;28;20045;-72
2022/01/06 02:13:04;;;;;;;3.40;0.80;;;;;;;0.20;93.57;100502.47;6084348;28;20033;-72
2022/01/06 02:16:01;;;;;;;7.55;0.90;;;;;;;0.11;93.25;100502.16;6081873;28;20037;-72
2022/01/06 02:18:56;;;;;;;4.45;0.90;;;;;;;0.00;93.15;100503.56;6080633;28;20032;-72
2022/01/06 02:21:52;;;;;;;1.60;0.70;;;;;;;-0.10;93.37;100517.19;6078912;28;20037;-74
2022/01/06 02:24:48;;;;;;;3.55;0.95;;;;;;;-0.18;93.74;100515.00;6081752;28;20112;-72
2022/01/06 02:27:46;;;;;;;1.42;0.50;;;;;;;-0.21;93.63;100514.31;6084739;28;20034;-73
2022/01/06 02:30:43;;;;;;;3.22;0.80;;;;;;;-0.26;93.53;100516.34;6080711;28;20437;-73
2022/01/06 02:33:39;;;;;;;5.40;0.95;;;;;;;-0.30;93.58;100522.66;6081171;28;20067;-73
2022/01/06 02:36:34;;;;;;;2.15;0.40;;;;;;;-0.44;93.61;100520.78;6079876;28;20048;-73
2022/01/06 02:39:29;;;;;;;3.83;0.47;;;;;;;-0.45;93.59;100537.31;6081618;28;20029;-72
2022/01/06 02:42:26;;;;;;;6.37;0.80;;;;;;;-0.46;93.73;100530.41;6083670;28;20033;-73
2022/01/06 02:45:26;;;;;;;4.55;0.60;;;;;;;-0.47;93.55;100533.97;6080536;28;20021;-73
2022/01/06 02:48:21;;;;;;;2.25;0.40;;;;;;;-0.46;93.67;100548.66;6078489;28;20037;-73
2022/01/06 02:51:17;;;;;;;4.50;0.77;;;;;;;-0.58;93.63;100551.91;6076946;28;20037;-73
2022/01/06 02:54:13;;;;;;;2.00;0.40;;;;;;;-0.68;94.01;100558.53;6082173;28;20092;-73
2022/01/06 02:57:09;;;;;;;2.60;0.40;;;;;;;-0.69;93.74;100554.22;6082567;28;20059;-72
2022/01/06 03:00:07;;;;;;;2.50;0.70;;;;;;;-0.66;93.75;100559.28;6077884;28;20063;-73
2022/01/06 03:03:03;;;;;;;2.30;0.70;;;;;;;-0.65;94.12;100558.34;6078804;28;20116;-73
2022/01/06 03:05:58;;;;;;;1.77;0.50;;;;;;;-0.66;94.28;100554.91;6081377;28;20041;-75
2022/01/06 03:08:53;;;;;;;3.20;0.70;;;;;;;-0.64;93.95;100571.28;6084468;28;20021;-73
2022/01/06 03:11:51;;;;;;;3.35;1.08;;;;;;;-0.68;93.73;100574.16;6082629;28;20033;-73
2022/01/06 03:14:46;;;;;;;2.10;1.00;;;;;;;-0.74;93.51;100584.88;6073346;28;20124;-75
2022/01/06 03:17:45;;;;;;;2.97;0.63;;;;;;;-0.74;93.62;100583.09;6082499;28;20502;-74
2022/01/06 03:20:40;;;;;;;5.97;0.63;;;;;;;-0.82;93.57;100592.22;6083782;28;20064;-74
2022/01/06 03:23:35;;;;;;;1.57;0.60;;;;;;;-0.80;93.53;100595.56;6079584;28;20029;-74
2022/01/06 03:26:31;;;;;;;3.80;0.83;;;;;;;-0.82;93.73;100593.06;6084891;28;20029;-73
2022/01/06 03:29:26;;;;;;;4.50;0.90;;;;;;;-0.87;93.86;100612.44;6082652;28;20033;-72
2022/01/06 03:32:21;;;;;;;3.90;1.17;;;;;;;-0.85;93.79;100605.38;6081341;28;20025;-71
2022/01/06 03:35:20;;;;;;;2.73;0.43;;;;;;;-0.99;93.92;100616.47;6084846;28;20090;-73
2022/01/06 03:38:15;;;;;;;0.65;0.38;;;;;;;-1.00;94.14;100627.78;6083441;28;20037;-72
2022/01/06 03:41:11;;;;;;;4.40;1.07;;;;;;;-0.98;94.39;100625.13;6077516;28;20033;-72
2022/01/06 03:44:06;;;;;;;2.40;1.00;;;;;;;-0.98;94.19;100640.75;6082667;28;20029;-72
2022/01/06 03:47:01;;;;;;;2.13;0.40;;;;;;;-1.08;93.85;100632.53;6078857;28;20040;-72
2022/01/06 03:49:57;;;;;;;0.75;0.45;;;;;;;-1.07;94.00;100639.44;6077797;28;20034;-72
2022/01/06 03:52:52;;;;;;;1.80;0.77;;;;;;;-1.04;94.18;100646.25;6082388;28;20045;-72
2022/01/06 03:55:47;;;;;;;1.97;0.73;;;;;;;-1.11;94.22;100655.28;6069515;28;20028;-73
2022/01/06 03:58:44;;;;;;;5.97;0.73;;;;;;;-1.10;94.17;100659.53;6071304;28;20052;-72
2022/01/06 04:01:39;;;;;;;9.32;1.40;;;;;;;-1.07;94.42;100659.38;6070552;28;20041;-72
2022/01/06 04:04:35;;;;;;;2.38;0.70;;;;;;;-1.02;94.46;100670.41;6065860;28;20033;-73
2022/01/06 04:07:30;;;;;;;8.60;2.20;;;;;;;-0.98;94.77;100679.78;6065291;28;20048;-73
2022/01/06 04:10:26;;;;;;;7.93;1.77;;;;;;;-1.01;94.37;100683.38;6067853;28;20033;-74
2022/01/06 04:13:21;;;;;;;5.25;1.15;;;;;;;-1.09;95.07;100674.25;6072793;28;20087;-73
2022/01/06 04:16:17;;;;;;;4.53;0.90;;;;;;;-1.18;94.65;100677.28;6070595;28;20041;-73
2022/01/06 04:19:13;;;;;;;3.35;0.77;;;;;;;-1.16;94.92;100691.03;6072361;28;20484;-73
2022/01/06 04:22:08;;;;;;;2.17;0.60;;;;;;;-1.26;95.09;100691.50;6071859;28;20069;-73
2022/01/06 04:25:04;;;;;;;3.37;0.70;;;;;;;-1.32;94.60;100702.19;6071188;28;20033;-74
2022/01/06 04:28:00;;;;;;;6.20;1.35;;;;;;;-1.41;95.31;100700.00;6059541;28;20284;-74
2022/01/06 04:30:55;;;;;;;7.93;1.43;;;;;;;-1.33;95.08;100700.47;6061458;28;20424;-74
2022/01/06 04:33:50;;;;;;;5.35;0.90;;;;;;;-1.32;95.07;100699.56;6071766;28;20045;-74
2022/01/06 04:36:51;;;;;;;2.20;0.80;;;;;;;-1.30;95.31;100702.94;6071175;28;20033;-74
2022/01/06 04:39:46;;;;;;;4.07;0.88;;;;;;;-1.38;95.74;100715.44;6071972;28;20112;-74
2022/01/06 04:42:41;;;;;;;3.60;1.10;;;;;;;-1.44;95.57;100713.13;6071172;28;20056;-74
2022/01/06 04:45:37;;;;;;;10.40;1.27;;;;;;;-1.43;95.70;100717.44;6056645;28;20084;-74
2022/01/06 04:48:35;;;;;;;2.70;1.37;;;;;;;-1.44;95.72;100725.31;6071024;28;20033;-74
2022/01/06 04:51:31;;;;;;;4.13;1.27;;;;;;;-1.41;95.74;100731.19;6076344;28;20045;-73
2022/01/06 04:54:26;;;;;;;4.15;1.35;;;;;;;-1.38;95.79;100731.06;6074711;28;20056;-74
2022/01/06 04:57:22;;;;;;;5.15;1.10;;;;;;;-1.37;95.72;100727.56;6075706;28;20444;-73
2022/01/06 05:00:17;;;;;;;4.90;1.73;;;;;;;-1.41;95.47;100749.41;6073675;28;20033;-74
2022/01/06 05:03:13;;;;;;;2.57;0.97;;;;;;;-1.39;95.80;100751.94;6075598;28;20045;-74
2022/01/06 05:06:08;;;;;;;5.40;1.30;;;;;;;-1.31;95.71;100750.69;6075240;28;20033;-73
2022/01/06 05:09:03;;;;;;;5.63;1.17;;;;;;;-1.30;95.63;100762.75;6075337;28;20052;-73
2022/01/06 05:11:59;;;;;;;4.53;1.15;;;;;;;-1.33;95.82;100755.09;6074959;28;20022;-73
2022/01/06 05:14:54;;;;;;;4.07;1.10;;;;;;;-1.34;95.82;100770.78;6075498;28;20025;-73
2022/01/06 05:17:49;;;;;;;3.57;1.20;;;;;;;-1.27;96.16;100775.63;6074728;28;20148;-74
2022/01/06 05:20:45;;;;;;;5.83;1.30;;;;;;;-1.18;95.66;100773.50;6070428;28;20041;-73
2022/01/06 05:23:41;;;;;;;10.48;1.20;;;;;;;-1.23;95.71;100774.59;6075515;28;20064;-73
2022/01/06 05:26:38;;;;;;;5.13;1.10;;;;;;;-1.21;95.87;100775.34;6074039;28;20072;-73
2022/01/06 05:29:33;;;;;;;4.93;1.40;;;;;;;-1.17;95.88;100785.63;6074687;28;20052;-73
2022/01/06 05:32:28;;;;;;;5.43;1.10;;;;;;;-1.17;95.74;100801.22;6075232;28;20041;-73
2022/01/06 05:35:24;;;;;;;4.63;1.03;;;;;;;-1.16;95.42;100808.09;6074066;28;20087;-73
2022/01/06 05:38:19;;;;;;;2.93;1.10;;;;;;;-1.20;95.85;100813.44;6073890;28;20049;-73
2022/01/06 05:41:14;;;;;;;4.10;1.13;;;;;;;-1.21;95.50;100821.31;6070157;28;20025;-74
2022/01/06 05:44:10;;;;;;;3.80;1.13;;;;;;;-1.17;95.86;100827.22;6072974;28;20447;-73
2022/01/06 05:47:05;;;;;;;4.88;0.82;;;;;;;-1.16;95.64;100829.75;6074586;28;20067;-73
2022/01/06 05:50:01;;;;;;;5.03;1.23;;;;;;;-1.14;95.65;100835.72;6060604;28;20029;-73
2022/01/06 05:52:57;;;;;;;7.13;1.40;;;;;;;-1.11;95.66;100837.38;6074289;28;20045;-73
2022/01/06 05:55:52;;;;;;;2.40;1.00;;;;;;;-1.09;95.82;100843.34;6064087;28;20087;-73
2022/01/06 05:58:47;;;;;;;6.60;1.20;;;;;;;-1.07;95.56;100849.31;6072286;28;20397;-73
2022/01/06 06:01:45;;;;;;;5.37;1.27;;;;;;;-1.11;95.66;100852.97;6074185;28;20059;-73
2022/01/06 06:04:41;;;;;;;2.38;0.57;;;;;;;-1.08;95.57;100842.41;6074510;28;20288;-73
2022/01/06 06:07:36;;;;;;;2.17;0.73;;;;;;;-1.13;95.31;100850.44;6067467;28;20061;-73
2022/01/06 06:10:31;;;;;;;2.67;1.13;;;;;;;-1.24;95.52;100857.88;6074725;28;20609;-73
2022/01/06 06:13:27;;;;;;;4.50;0.90;;;;;;;-1.31;95.24;100856.47;6074430;28;20049;-72
2022/01/06 06:16:22;;;;;;;5.10;1.23;;;;;;;-1.37;95.25;100872.31;6072388;28;20036;-73
2022/01/06 06:19:17;;;;;;;11.73;1.33;;;;;;;-1.31;95.68;100872.91;6069962;28;20041;-73
2022/01/06 06:22:13;;;;;;;8.97;1.40;;;;;;;-1.30;95.72;100886.75;6069625;28;20515;-72
2022/01/06 06:25:08;;;;;;;6.80;1.38;;;;;;;-1.20;95.51;100875.84;6063038;28;20029;-73
2022/01/06 06:28:04;;;;;;;3.50;1.35;;;;;;;-1.10;95.72;100875.47;6086551;28;20037;-73
2022/01/06 06:30:59;;;;;;;2.90;0.77;;;;;;;-1.15;95.45;100882.63;6071246;28;20025;-72
2022/01/06 06:33:54;;;;;;;4.97;1.35;;;;;;;-1.10;95.75;100891.06;6059307;28;20507;-72
2022/01/06 06:36:50;;;;;;;3.67;1.40;;;;;;;-1.24;95.45;100900.34;6070382;28;20116;-72
2022/01/06 06:39:45;;;;;;;4.90;1.33;;;;;;;-1.31;95.52;100911.94;6074633;28;20033;-72
2022/01/06 06:42:40;;;;;;;4.20;1.43;;;;;;;-1.34;95.46;100916.41;6073645;28;20446;-73
2022/01/06 06:45:36;;;;;;;4.50;1.27;;;;;;;-1.33;95.50;100925.88;6074856;28;20379;-73
2022/01/06 06:48:31;;;;;;;3.80;1.20;;;;;;;-1.36;95.50;100919.06;6078326;28;20037;-72
2022/01/06 06:51:26;;;;;;;5.37;1.10;;;;;;;-1.44;95.26;100928.94;6072993;28;20147;-72
2022/01/06 06:54:22;;;;;;;2.67;1.00;;;;;;;-1.36;95.39;100931.25;6073780;28;20033;-72
2022/01/06 06:57:17;;;;;;;4.67;1.00;;;;;;;-1.40;95.73;100940.91;6074340;28;20029;-72
2022/01/06 07:00:13;;;;;;;3.93;1.23;;;;;;;-1.47;95.63;100943.84;6072669;28;20045;-72
2022/01/06 07:03:08;;;;;;;5.38;1.20;;;;;;;-1.40;95.38;100961.72;6068089;28;20037;-72
2022/01/06 07:06:03;;;;;;;1.73;0.73;;;;;;;-1.51;95.50;100957.88;6073337;28;20041;-71
2022/01/06 07:08:59;;;;;;;4.10;1.20;;;;;;;-1.51;95.34;100958.72;6072766;28;20087;-71
2022/01/06 07:11:54;;;;;;;5.70;1.13;;;;;;;-1.48;96.03;100960.34;6068969;28;20120;-72
2022/01/06 07:14:49;;;;;;;3.92;1.27;;;;;;;-1.43;95.28;100961.84;6073367;28;20034;-72
2022/01/06 07:17:45;;;;;;;3.25;1.27;;;;;;;-1.41;95.86;100960.00;6071754;28;20033;-71
2022/01/06 07:20:41;;;;;;;3.03;1.08;;;;;;;-1.40;95.37;100964.31;6082180;28;20041;-72
2022/01/06 07:23:36;;;;;;;5.93;1.50;;;;;;;-1.17;95.66;100957.28;6081765;28;20914;-72
2022/01/06 07:26:32;;;;;;;4.73;1.30;;;;;;;-1.23;95.73;100968.81;6082586;28;20033;-72
2022/01/06 07:29:28;;;;;;;5.50;1.80;;;;;;;-1.19;95.63;100959.94;6073652;28;20039;-72
2022/01/06 07:32:24;;;;;;;4.70;1.58;;;;;;;-1.18;95.94;100956.44;6081464;28;20033;-72
2022/01/06 07:35:21;;;;;;;4.75;1.75;;;;;;;-1.21;95.64;100973.03;6072322;28;20037;-71
2022/01/06 07:38:17;;;;;;;5.70;2.00;;;;;;;-1.26;95.99;100972.38;6077915;28;20477;-71
2022/01/06 07:41:13;;;;;;;7.60;1.73;;;;;;;-1.35;95.61;100979.72;6084130;28;20447;-72
2022/01/06 07:44:08;;;;;;;4.50;1.70;;;;;;;-1.43;95.79;100982.63;6076635;28;20025;-72
2022/01/06 07:47:04;;;;;;;3.90;2.10;;;;;;;-1.53;95.75;100985.69;6078638;28;20358;-72
2022/01/06 07:49:59;;;;;;;6.38;2.13;;;;;;;-1.48;95.86;100989.78;6077888;28;20030;-72
2022/01/06 07:52:55;;;;;;;7.32;1.88;;;;;;;-1.53;95.89;100986.53;6073842;28;20026;-71
2022/01/06 07:55:50;;;;;;;7.75;1.92;;;;;;;-1.45;95.94;100999.22;6081217;28;20040;-72
2022/01/06 07:58:46;;;;;;;6.07;1.40;;;;;;;-1.36;95.74;100999.66;6069151;28;20029;-71
2022/01/06 08:01:41;;;;;;;10.95;1.52;;;;;;;-1.25;96.19;101007.88;6077252;28;20135;-72
2022/01/06 08:04:36;;;;;;;5.23;2.10;;;;;;;-1.18;96.00;101002.41;6082535;28;20533;-72
2022/01/06 08:07:32;;;;;;;6.73;1.77;;;;;;;-1.16;96.10;101011.00;6074846;28;20319;-71
2022/01/06 08:10:27;;;;;;;4.63;1.63;;;;;;;-1.14;95.89;101011.78;6076199;28;20762;-71
2022/01/06 08:13:22;;;;;;;5.40;1.80;;;;;;;-1.10;95.74;101015.94;6078169;28;20279;-71
2022/01/06 08:16:18;;;;;;;8.07;1.73;;;;;;;-1.03;95.97;101014.78;6077393;28;20045;-72
2022/01/06 08:19:13;;;;;;;9.73;1.83;;;;;;;-0.98;95.81;101020.63;6078766;28;20325;-73
2022/01/06 08:22:09;;;;;;;7.38;1.90;;;;;;;-0.92;96.26;101016.00;6076427;28;20037;-73
2022/01/06 08:25:06;;;;;;;6.07;1.80;;;;;;;-0.87;95.86;101024.44;6080441;28;20121;-73
2022/01/06 08:28:02;;;;;;;6.78;1.60;;;;;;;-0.83;95.21;101028.63;6079665;28;20751;-74
2022/01/06 08:30:57;;;;;;;7.63;2.13;;;;;;;-0.78;95.41;101031.88;6076992;28;20053;-74
2022/01/06 08:33:53;;;;;;;3.40;1.40;;;;;;;-0.71;95.32;101035.88;6083693;28;20087;-74
2022/01/06 08:36:52;;;;;;;8.40;2.20;;;;;;;-0.57;95.54;101048.28;6073346;28;20273;-74
2022/01/06 08:39:47;;;;;;;5.40;1.98;;;;;;;-0.43;95.29;101052.91;6083695;28;20292;-74
2022/01/06 08:42:43;;;;;;;9.57;1.40;;;;;;;-0.23;95.14;101048.50;6085894;28;20037;-73
2022/01/06 08:45:39;;;;;;;5.13;1.88;;;;;;;-0.06;95.47;101051.19;6079375;28;20108;-72
2022/01/06 08:48:34;;;;;;;7.40;1.80;;;;;;;0.10;95.02;101051.31;6083424;28;20503;-73
2022/01/06 08:51:29;;;;;;;8.43;1.73;;;;;;;0.29;94.97;101046.94;6078823;28;20061;-72
2022/01/06 08:54:25;;;;;;;4.30;1.25;;;;;;;0.46;94.65;101059.97;6083038;28;20032;-72
2022/01/06 08:57:21;;;;;;;9.05;1.95;;;;;;;0.61;94.33;101058.41;6085801;28;20068;-73
2022/01/06 09:00:17;;;;;;;5.30;1.90;;;;;;;0.69;94.30;101051.06;6082085;28;20037;-73
2022/01/06 09:03:12;;;;;;;7.77;1.93;;;;;;;0.75;93.91;101055.97;6058069;28;20109;-73
2022/01/06 09:06:07;;;;;;;6.10;2.10;;;;;;;0.95;93.26;101057.59;6067002;28;20135;-73
2022/01/06 09:09:03;;;;;;;8.10;2.23;;;;;;;1.04;92.39;101055.34;6073024;28;20156;-73
2022/01/06 09:11:58;;;;;;;11.85;2.53;;;;;;;1.15;91.49;101055.66;6071448;28;20128;-73
2022/01/06 09:14:54;;;;;;;7.13;1.80;;;;;;;1.25;91.07;101066.47;6066387;28;20034;-73
2022/01/06 09:17:50;;;;;;;5.50;1.58;;;;;;;1.40;89.86;101075.28;6064204;28;20366;-73
2022/01/06 09:20:45;;;;;;;9.15;2.40;;;;;;;1.44;88.91;101082.06;6063749;28;20480;-73
2022/01/06 09:23:40;;;;;;;11.85;2.08;;;;;;;1.53;87.99;101087.66;6071214;28;20559;-72
2022/01/06 09:26:37;;;;;;;10.87;2.47;;;;;;;1.53;87.45;101084.19;6069614;28;20102;-73
2022/01/06 09:29:32;;;;;;;10.25;2.92;;;;;;;1.51;87.32;101081.66;6069541;28;20420;-73
2022/01/06 09:32:27;;;;;;;8.53;2.63;;;;;;;1.58;86.94;101096.09;6075025;28;20037;-74
2022/01/06 09:35:23;;;;;;;5.97;2.60;;;;;;;1.62;86.70;101107.25;6075410;28;20048;-73
2022/01/06 09:38:18;;;;;;;12.80;2.70;;;;;;;1.72;86.54;101103.22;6062659;28;20065;-74
2022/01/06 09:41:14;;;;;;;13.38;3.05;;;;;;;1.74;86.02;101101.34;6078591;28;20021;-74
2022/01/06 09:44:09;;;;;;;6.97;2.72;;;;;;;1.76;86.28;101099.53;6051992;28;20042;-74
2022/01/06 09:47:08;;;;;;;7.83;2.73;;;;;;;1.93;86.03;101102.06;6070125;28;20033;-73
2022/01/06 09:50:05;;;;;;;9.00;3.05;;;;;;;2.04;85.43;101098.91;6068365;28;20536;-73
2022/01/06 09:53:00;;;;;;;6.47;2.45;;;;;;;2.18;85.90;101097.22;6074301;28;20029;-74
2022/01/06 09:55:56;;;;;;;10.67;3.17;;;;;;;2.25;84.78;101103.81;6065293;28;20524;-74
2022/01/06 09:58:51;;;;;;;10.13;2.47;;;;;;;2.31;84.56;101103.47;6075197;28;20384;-74
2022/01/06 10:01:46;;;;;;;5.90;2.53;;;;;;;2.29;84.49;101100.09;6073731;28;20103;-73
2022/01/06 10:04:43;;;;;;;13.90;2.90;;;;;;;2.37;84.27;101112.75;6070815;28;20279;-73
2022/01/06 10:07:40;;;;;;;7.32;3.03;;;;;;;2.56;84.82;101115.19;6064816;28;20037;-73
2022/01/06 10:10:35;;;;;;;7.53;3.05;;;;;;;2.56;84.26;101112.56;6064820;28;20124;-74
2022/01/06 10:13:32;;;;;;;7.22;2.50;;;;;;;2.69;83.18;101110.97;6074941;28;20041;-74
2022/01/06 10:16:29;;;;;;;9.38;2.78;;;;;;;2.73;83.92;101115.09;6072819;28;20025;-73
2022/01/06 10:19:25;;;;;;;10.18;3.08;;;;;;;2.66;82.62;101105.91;6069734;28;20042;-73
2022/01/06 10:22:21;;;;;;;6.43;3.05;;;;;;;2.69;83.18;101103.13;6066851;28;20036;-75
2022/01/06 10:25:18;;;;;;;6.40;2.65;;;;;;;2.65;82.96;101114.69;6078651;28;20069;-75
2022/01/06 10:28:18;;;;;;;8.43;3.42;;;;;;;2.68;83.09;101110.13;6082259;28;20120;-74
2022/01/06 10:31:18;;;;;;;9.40;3.35;;;;;;;2.70;82.83;101105.66;6080561;28;20399;-73
2022/01/06 10:34:13;;;;;;;5.53;2.47;;;;;;;2.67;81.93;101115.44;6079721;28;20496;-74
2022/01/06 10:37:25;;;;;;;10.57;3.50;;;;;;;2.56;83.05;101116.03;6076309;28;20065;-73
2022/01/06 10:40:22;;;;;;;6.63;3.13;;;;;;;2.49;82.79;101119.09;6078569;28;20032;-74
2022/01/06 10:43:17;;;;;;;11.10;3.22;;;;;;;2.60;83.26;101114.09;6084255;28;20045;-73
2022/01/06 10:46:13;;;;;;;7.17;2.60;;;;;;;2.69;82.77;101129.31;6068403;28;20033;-74
2022/01/06 10:49:11;;;;;;;9.10;2.63;;;;;;;2.54;82.60;101132.75;6080022;28;20596;-74
2022/01/06 10:52:06;;;;;;;6.75;2.72;;;;;;;2.53;82.58;101133.72;6073265;28;20404;-74
2022/01/06 10:55:18;;;;;;;6.70;3.00;;;;;;;2.56;82.70;101133.50;6074707;28;20036;-73
2022/01/06 10:58:19;;;;;;;8.30;2.70;;;;;;;2.66;82.74;101125.09;6071281;28;20039;-75
2022/01/06 11:01:16;;;;;;;8.27;2.47;;;;;;;2.75;82.44;101136.78;6076731;28;20516;-72
2022/01/06 11:04:12;;;;;;;11.40;2.67;;;;;;;2.68;81.92;101130.22;6064027;28;20590;-73
2022/01/06 11:07:09;;;;;;;8.63;2.53;;;;;;;2.80;82.23;101130.38;6063634;28;20041;-74
2022/01/06 11:10:13;;;;;;;5.80;2.25;;;;;;;2.85;81.58;101130.94;6072232;28;20090;-72
2022/01/06 11:13:09;;;;;;;9.18;2.45;;;;;;;2.93;81.61;101135.78;6075543;28;20060;-72
2022/01/06 11:16:06;;;;;;;9.07;2.30;;;;;;;2.99;82.11;101140.63;6060632;28;20034;-74
2022/01/06 11:19:01;;;;;;;5.43;2.05;;;;;;;3.01;81.56;101141.41;6075745;28;20045;-74
2022/01/06 11:22:00;;;;;;;10.97;2.47;;;;;;;3.08;81.51;101134.88;6088497;28;20041;-74
2022/01/06 11:24:57;;;;;;;8.45;1.58;;;;;;;3.02;81.68;101145.72;6081374;28;20025;-75
2022/01/06 11:28:00;;;;;;;7.10;2.30;;;;;;;2.87;81.25;101136.13;6079476;28;20033;-74
2022/01/06 11:30:55;;;;;;;8.60;2.20;;;;;;;2.76;81.97;101141.09;6077666;28;20029;-74
2022/01/06 11:33:54;;;;;;;8.57;2.45;;;;;;;2.61;82.67;101136.75;6070279;28;20088;-74
2022/01/06 11:36:51;;;;;;;6.75;2.20;;;;;;;2.52;83.46;101143.31;6073453;28;20026;-75
2022/01/06 11:39:47;;;;;;;6.20;2.03;;;;;;;2.45;83.53;101149.00;6076372;28;20472;-74
2022/01/06 11:42:53;;;;;;;8.95;2.60;;;;;;;2.33;84.01;101143.50;6078915;28;20033;-74
2022/01/06 11:45:58;;;;;;;9.40;2.22;;;;;;;2.37;84.17;101145.00;6079131;28;20033;-76
2022/01/06 11:48:58;;;;;;;5.97;2.40;;;;;;;2.38;84.82;101151.06;6079084;28;20032;-75
2022/01/06 11:52:03;;;;;;;5.50;2.22;;;;;;;2.37;84.69;101144.16;6073478;28;20033;-74
2022/01/06 11:54:59;;;;;;;12.18;2.38;;;;;;;2.46;84.66;101142.81;6071556;28;20030;-75
2022/01/06 11:57:54;;;;;;;11.90;2.78;;;;;;;2.45;85.14;101134.09;6079812;28;20064;-75
2022/01/06 12:01:01;;;;;;;9.20;2.13;;;;;;;2.46;84.68;101140.19;6080829;28;20033;-75
2022/01/06 12:03:57;;;;;;;7.47;2.42;;;;;;;2.51;84.61;101140.78;6077516;28;20025;-76
2022/01/06 12:07:03;;;;;;;8.63;2.60;;;;;;;2.50;84.62;101144.34;6082703;28;20072;-75
2022/01/06 12:10:03;;;;;;;12.48;3.58;;;;;;;2.54;84.79;101143.22;6076982;28;20017;-74
2022/01/06 12:12:59;;;;;;;10.23;2.20;;;;;;;2.62;84.66;101138.41;6084242;28;20021;-75
2022/01/06 12:15:57;;;;;;;7.25;2.20;;;;;;;2.66;85.31;101146.03;6085978;28;20040;-75
2022/01/06 12:18:52;;;;;;;11.77;2.60;;;;;;;2.66;84.98;101142.56;6079234;28;20025;-75
2022/01/06 12:21:48;;;;;;;17.90;4.88;;;;;;;2.73;85.10;101146.50;6068752;28;20048;-73
2022/01/06 12:24:43;;;;;;;11.27;2.40;;;;;;;2.72;84.26;101145.66;6066387;28;20060;-74
2022/01/06 12:27:48;;;;;;;7.43;2.50;;;;;;;2.69;84.76;101150.25;6076237;28;20031;-73
2022/01/06 12:30:43;;;;;;;10.85;3.03;;;;;;;2.71;85.15;101158.84;6075436;28;20396;-74
2022/01/06 12:33:43;;;;;;;9.93;2.63;;;;;;;2.70;84.51;101154.53;6065076;28;20036;-74
2022/01/06 12:36:42;;;;;;;6.45;2.97;;;;;;;2.73;84.98;101156.97;6073184;28;20132;-73
2022/01/06 12:39:38;;;;;;;10.75;2.45;;;;;;;2.74;85.22;101154.31;6073642;28;20124;-74
2022/01/06 12:42:42;;;;;;;11.40;2.53;;;;;;;2.77;85.14;101145.44;6075129;28;20028;-75
2022/01/06 12:45:37;;;;;;;9.98;2.90;;;;;;;2.76;85.07;101148.97;6067284;28;20484;-74
2022/01/06 12:48:35;;;;;;;9.37;2.60;;;;;;;2.85;84.32;101151.91;6074041;28;20048;-73
2022/01/06 12:51:30;;;;;;;5.38;2.00;;;;;;;2.82;84.09;101157.34;6069384;28;20551;-74
2022/01/06 12:54:26;;;;;;;10.98;3.50;;;;;;;2.88;84.17;101158.75;6073433;28;20034;-74
2022/01/06 12:57:22;;;;;;;8.13;2.63;;;;;;;2.93;83.96;101161.97;6071010;28;20061;-74
2022/01/06 13:00:19;;;;;;;7.63;3.90;;;;;;;2.94;83.91;101161.00;6060506;28;20091;-74
2022/01/06 13:03:25;;;;;;;9.35;3.08;;;;;;;2.97;83.73;101152.97;6065931;28;20034;-73
2022/01/06 13:06:22;;;;;;;11.88;2.97;;;;;;;2.93;83.57;101160.19;6065343;28;20075;-74
2022/01/06 13:09:19;;;;;;;6.57;2.33;;;;;;;2.87;84.15;101159.69;6063307;28;20753;-73
2022/01/06 13:12:23;;;;;;;10.52;3.40;;;;;;;2.89;83.24;101157.81;6065263;28;20481;-74
2022/01/06 13:15:18;;;;;;;6.85;2.63;;;;;;;2.89;83.82;101153.44;6064708;28;20026;-73
2022/01/06 13:18:24;;;;;;;10.90;3.40;;;;;;;2.91;83.84;101161.19;6064819;28;20029;-73
2022/01/06 13:21:55;;;;;;;14.32;2.53;;;;;;;2.91;83.56;101163.81;6068201;28;20351;-75
2022/01/06 13:24:51;;;;;;;14.73;3.58;;;;;;;2.90;83.99;101165.59;6066721;28;20695;-75
2022/01/06 13:28:01;;;;;;;22.90;3.20;;;;;;;2.92;83.60;101168.13;6068576;28;20064;-74
2022/01/06 13:30:57;;;;;;;8.95;3.03;;;;;;;2.92;83.68;101168.13;6068726;28;20437;-73
2022/01/06 13:33:55;;;;;;;12.75;2.97;;;;;;;2.90;83.83;101170.00;6067255;28;20083;-73
2022/01/06 13:37:10;;;;;;;15.68;6.03;;;;;;;2.84;84.42;101168.56;6065062;28;20060;-73
2022/01/06 13:40:11;;;;;;;19.42;5.60;;;;;;;2.89;84.55;101174.38;6063519;28;20033;-74
2022/01/06 13:43:07;;;;;;;17.95;5.93;;;;;;;2.82;84.48;101178.28;6081414;28;20029;-73
2022/01/06 13:46:12;;;;;;;15.63;4.53;;;;;;;2.78;84.68;101178.53;6085156;28;20040;-73
2022/01/06 13:52:25;;;;;;;17.95;4.53;;;;;;;2.62;84.74;101175.06;6065302;28;20026;-73
2022/01/06 13:55:20;;;;;;;18.42;4.68;;;;;;;2.63;85.06;101174.13;6062705;28;20048;-74
2022/01/06 13:58:16;;;;;;;18.98;6.72;;;;;;;2.59;85.10;101170.84;6064202;28;20432;-74
2022/01/06 14:01:14;;;;;;;12.80;5.23;;;;;;;2.52;85.58;101179.13;6060271;28;20680;-73
2022/01/06 14:04:17;;;;;;;20.88;5.03;;;;;;;2.55;85.80;101189.41;6063586;28;20463;-74